createdAt,value
2018-11-03T00:00:53.625Z,99.90
2018-11-03T00:03:21.676Z,99.90
2018-11-03T00:05:49.742Z,99.90
2018-11-03T00:08:17.809Z,99.90
2018-11-03T00:10:47.168Z,99.90
2018-11-03T00:13:15.209Z,99.90
2018-11-03T00:15:43.205Z,99.90
2018-11-03T00:18:11.223Z,99.90
2018-11-03T00:20:39.240Z,99.90
2018-11-03T00:23:07.771Z,99.90
2018-11-03T00:25:35.824Z,99.90
2018-11-03T00:28:03.929Z,99.90
2018-11-03T00:30:31.961Z,99.90
2018-11-03T00:32:59.992Z,99.90
2018-11-03T00:35:27.978Z,99.90
2018-11-03T00:37:56.131Z,99.90
2018-11-03T00:40:24.162Z,99.90
2018-11-03T00:42:52.236Z,99.90
2018-11-03T00:45:20.291Z,99.90
2018-11-03T00:47:48.305Z,99.90
2018-11-03T00:50:16.740Z,99.90
2018-11-03T00:52:45.045Z,99.90
2018-11-03T00:55:13.518Z,99.90
2018-11-03T00:57:42.003Z,99.90
2018-11-03T01:00:15.273Z,99.90
2018-11-03T01:02:44.690Z,99.90
2018-11-03T01:05:12.943Z,99.90
2018-11-03T01:07:41.700Z,99.90
2018-11-03T01:10:09.765Z,99.90
2018-11-03T01:12:38.409Z,99.90
2018-11-03T01:15:09.290Z,99.90
2018-11-03T01:17:37.412Z,99.90
2018-11-03T01:20:06.639Z,99.90
2018-11-03T01:22:34.592Z,99.90
2018-11-03T01:25:02.642Z,99.90
2018-11-03T01:27:30.700Z,99.90
2018-11-03T01:29:58.693Z,99.90
2018-11-03T01:32:26.736Z,99.90
2018-11-03T01:34:54.654Z,99.90
2018-11-03T01:37:22.686Z,99.90
2018-11-03T01:39:50.657Z,99.90
2018-11-03T01:42:18.661Z,99.90
2018-11-03T01:44:46.644Z,99.90
2018-11-03T01:47:14.649Z,99.90
2018-11-03T01:49:42.678Z,99.90
2018-11-03T01:52:10.649Z,99.90
2018-11-03T01:54:38.641Z,99.90
2018-11-03T01:57:06.645Z,99.90
2018-11-03T01:59:34.752Z,99.90
2018-11-03T02:02:02.716Z,99.90
2018-11-03T02:04:30.711Z,99.90
2018-11-03T02:06:58.738Z,99.90
2018-11-03T02:09:26.728Z,99.90
2018-11-03T02:11:54.692Z,99.90
2018-11-03T02:14:22.855Z,99.90
2018-11-03T02:16:51.040Z,99.90
2018-11-03T02:19:19.023Z,99.90
2018-11-03T02:21:47.252Z,99.90
2018-11-03T02:24:15.217Z,99.90
2018-11-03T02:26:43.209Z,99.90
2018-11-03T02:29:11.345Z,99.90
2018-11-03T02:31:39.380Z,99.90
2018-11-03T02:34:07.930Z,99.90
2018-11-03T02:36:35.976Z,99.90
2018-11-03T02:39:05.433Z,99.90
2018-11-03T02:41:33.405Z,99.90
2018-11-03T02:44:01.372Z,99.90
2018-11-03T02:46:29.360Z,99.90
2018-11-03T02:48:57.341Z,99.90
2018-11-03T02:51:25.328Z,99.90
2018-11-03T02:53:53.291Z,99.90
2018-11-03T02:56:21.315Z,99.90
2018-11-03T02:58:49.268Z,99.90
2018-11-03T03:01:17.301Z,99.90
2018-11-03T03:03:45.492Z,99.90
2018-11-03T03:06:13.456Z,99.90
2018-11-03T03:08:41.507Z,99.90
2018-11-03T03:11:09.482Z,99.90
2018-11-03T03:13:37.450Z,99.90
2018-11-03T03:16:05.744Z,99.90
2018-11-03T03:18:33.736Z,99.90
2018-11-03T03:21:01.681Z,99.90
2018-11-03T03:23:29.639Z,99.90
2018-11-03T03:25:57.640Z,99.90
2018-11-03T03:28:25.689Z,99.90
2018-11-03T03:30:53.765Z,99.90
2018-11-03T03:33:21.720Z,99.90
2018-11-03T03:35:49.692Z,99.90
2018-11-03T03:38:17.691Z,99.90
2018-11-03T03:40:45.710Z,99.90
2018-11-03T03:43:13.787Z,99.90
2018-11-03T03:45:41.754Z,99.90
2018-11-03T03:48:09.696Z,99.90
2018-11-03T03:50:37.664Z,99.90
2018-11-03T03:53:05.679Z,99.90
2018-11-03T03:55:33.615Z,99.90
2018-11-03T03:58:01.591Z,99.90
2018-11-03T04:00:29.561Z,99.90
2018-11-03T04:02:57.564Z,99.90
2018-11-03T04:05:25.524Z,99.90
2018-11-03T04:07:53.520Z,99.90
2018-11-03T04:10:21.505Z,99.90
2018-11-03T04:12:49.504Z,99.90
2018-11-03T04:15:17.496Z,99.90
2018-11-03T04:17:45.475Z,99.90
2018-11-03T04:20:13.468Z,99.90
2018-11-03T04:22:41.434Z,99.90
2018-11-03T04:25:09.137Z,99.90
2018-11-03T04:27:37.123Z,99.90
2018-11-03T04:30:07.772Z,99.90
2018-11-03T04:32:35.793Z,99.90
2018-11-03T04:35:03.750Z,99.90
2018-11-03T04:37:31.716Z,99.90
2018-11-03T04:39:59.677Z,99.90
2018-11-03T04:42:27.684Z,99.90
2018-11-03T04:44:55.693Z,99.90
2018-11-03T04:47:23.686Z,99.90
2018-11-03T04:49:51.760Z,99.90
2018-11-03T04:52:19.777Z,99.90
2018-11-03T04:54:47.733Z,99.90
2018-11-03T04:57:15.812Z,99.90
2018-11-03T04:59:44.620Z,99.90
2018-11-03T05:02:12.784Z,99.90
2018-11-03T05:04:41.370Z,99.90
2018-11-03T05:07:09.384Z,99.90
2018-11-03T05:09:37.337Z,99.90
2018-11-03T05:12:05.464Z,99.90
2018-11-03T05:14:33.514Z,99.90
2018-11-03T05:17:01.483Z,99.90
2018-11-03T05:19:29.471Z,99.90
2018-11-03T05:21:57.429Z,99.90
2018-11-03T05:24:25.536Z,99.90
2018-11-03T05:26:53.556Z,99.90
2018-11-03T05:29:21.857Z,99.90
2018-11-03T05:31:50.124Z,99.90
2018-11-03T05:34:18.109Z,99.90
2018-11-03T05:36:46.154Z,99.90
2018-11-03T05:39:14.115Z,99.90
2018-11-03T05:41:42.823Z,99.90
2018-11-03T05:44:11.300Z,99.90
2018-11-03T05:53:45.816Z,99.90
2018-11-03T05:56:13.793Z,99.90
2018-11-03T05:58:41.837Z,99.90
2018-11-03T06:01:09.781Z,99.90
2018-11-03T06:03:37.749Z,99.90
2018-11-03T06:06:05.705Z,99.90
2018-11-03T06:08:33.666Z,99.90
2018-11-03T06:11:01.668Z,99.90
2018-11-03T06:13:29.729Z,99.90
2018-11-03T06:15:57.700Z,99.90
2018-11-03T06:18:25.658Z,99.90
2018-11-03T06:20:53.689Z,99.90
2018-11-03T06:23:21.728Z,99.90
2018-11-03T06:25:49.671Z,99.90
2018-11-03T06:28:17.619Z,99.90
2018-11-03T06:30:45.616Z,99.90
2018-11-03T06:33:13.605Z,99.90
2018-11-03T06:35:41.570Z,99.90
2018-11-03T06:38:09.523Z,99.90
2018-11-03T06:40:37.491Z,99.90
2018-11-03T06:43:06.033Z,99.90
2018-11-03T06:45:34.017Z,99.90
2018-11-03T06:48:02.024Z,99.90
2018-11-03T06:50:29.988Z,99.90
2018-11-03T06:52:58.064Z,99.90
2018-11-03T06:55:26.110Z,99.90
2018-11-03T06:57:54.078Z,99.90
2018-11-03T07:00:22.576Z,99.90
2018-11-03T07:02:50.912Z,99.90
2018-11-03T07:05:18.973Z,99.90
2018-11-03T07:07:46.900Z,99.90
2018-11-03T07:10:14.844Z,99.90
2018-11-03T07:12:42.966Z,99.90
2018-11-03T07:15:10.796Z,99.90
2018-11-03T07:17:38.873Z,99.90
2018-11-03T07:20:08.688Z,99.90
2018-11-03T07:22:36.664Z,99.90
2018-11-03T07:25:05.457Z,99.90
2018-11-03T07:27:33.438Z,99.90
2018-11-03T07:30:01.398Z,99.90
2018-11-03T07:32:29.426Z,99.90
2018-11-03T07:34:57.376Z,99.90
2018-11-03T07:37:25.455Z,99.90
2018-11-03T07:39:53.409Z,99.90
2018-11-03T07:42:21.411Z,99.90
2018-11-03T07:44:49.364Z,99.90
2018-11-03T07:47:17.439Z,99.90
2018-11-03T07:49:45.432Z,99.90
2018-11-03T07:52:13.390Z,99.90
2018-11-03T07:54:41.455Z,99.90
2018-11-03T07:57:09.353Z,99.90
2018-11-03T07:59:37.316Z,99.90
2018-11-03T08:02:05.813Z,99.90
2018-11-03T08:04:33.806Z,99.90
2018-11-03T08:07:02.043Z,99.90
2018-11-03T08:09:30.040Z,99.90
2018-11-03T08:11:58.260Z,99.90
2018-11-03T08:14:26.265Z,99.90
2018-11-03T08:16:54.249Z,99.90
2018-11-03T08:19:22.287Z,99.90
2018-11-03T08:21:50.260Z,99.90
2018-11-03T08:24:18.237Z,99.90
2018-11-03T08:26:46.201Z,99.90
2018-11-03T08:29:14.184Z,99.90
2018-11-03T08:31:42.301Z,99.90
2018-11-03T08:34:10.118Z,99.90
2018-11-03T08:36:38.083Z,99.90
2018-11-03T08:39:07.520Z,99.90
2018-11-03T08:41:35.491Z,99.90
2018-11-03T08:44:03.544Z,99.90
2018-11-03T08:46:32.417Z,99.90
2018-11-03T08:49:00.478Z,99.90
2018-11-03T08:51:28.425Z,99.90
2018-11-03T08:53:56.420Z,99.90
2018-11-03T08:56:24.446Z,99.90
2018-11-03T08:58:52.515Z,99.90
2018-11-03T09:01:20.612Z,99.90
2018-11-03T09:03:48.681Z,99.90
2018-11-03T09:06:16.700Z,99.90
2018-11-03T09:08:44.673Z,99.90
2018-11-03T09:11:12.657Z,99.90
2018-11-03T09:13:40.652Z,99.90
2018-11-03T09:16:08.892Z,99.90
2018-11-03T09:18:36.976Z,99.90
2018-11-03T09:21:05.225Z,99.90
2018-11-03T09:23:33.254Z,99.90
2018-11-03T09:26:01.297Z,99.90
2018-11-03T09:28:29.394Z,99.90
2018-11-03T09:30:57.371Z,99.90
2018-11-03T09:33:25.389Z,99.90
2018-11-03T09:35:53.396Z,99.90
2018-11-03T09:38:21.464Z,99.90
2018-11-03T09:40:49.414Z,99.90
2018-11-03T09:43:17.667Z,99.90
2018-11-03T09:45:46.149Z,99.90
2018-11-03T09:48:14.391Z,99.90
2018-11-03T09:50:42.957Z,99.90
2018-11-03T09:53:11.588Z,99.90
2018-11-03T09:55:39.587Z,99.90
2018-11-03T09:58:07.579Z,99.90
2018-11-03T10:00:35.549Z,99.90
2018-11-03T10:03:03.584Z,99.90
2018-11-03T10:05:31.592Z,99.90
2018-11-03T10:07:59.606Z,99.90
2018-11-03T10:10:27.644Z,99.90
2018-11-03T10:12:55.769Z,99.90
2018-11-03T10:15:23.688Z,99.90
2018-11-03T10:17:51.708Z,99.90
2018-11-03T10:20:19.784Z,99.90
2018-11-03T10:22:47.899Z,99.90
2018-11-03T10:25:17.252Z,99.90
2018-11-03T10:27:45.525Z,99.90
2018-11-03T10:30:14.536Z,99.90
2018-11-03T10:32:42.891Z,99.90
2018-11-03T10:35:11.684Z,99.90
2018-11-03T10:37:39.752Z,99.90
2018-11-03T10:40:09.770Z,99.90
2018-11-03T10:42:37.865Z,99.90
2018-11-03T10:45:07.052Z,99.90
2018-11-03T10:47:35.033Z,99.90
2018-11-03T10:50:03.419Z,99.90
2018-11-03T10:52:31.390Z,99.90
2018-11-03T10:54:59.383Z,99.90
2018-11-03T10:57:27.620Z,99.90
2018-11-03T10:59:55.613Z,99.90
2018-11-03T11:02:29.176Z,99.90
2018-11-03T11:05:02.654Z,99.90
2018-11-03T11:07:36.125Z,99.90
2018-11-03T11:10:09.666Z,99.90
2018-11-03T11:12:41.721Z,99.90
2018-11-03T11:15:10.405Z,99.90
2018-11-03T11:17:38.359Z,99.90
2018-11-03T11:20:07.583Z,99.90
2018-11-03T11:22:35.569Z,99.90
2018-11-03T11:25:04.234Z,99.90
2018-11-03T11:27:31.953Z,99.90
2018-11-03T11:29:59.923Z,99.90
2018-11-03T11:32:27.948Z,99.90
2018-11-03T11:34:55.898Z,99.90
2018-11-03T11:37:23.913Z,99.90
2018-11-03T11:39:51.965Z,99.90
2018-11-03T11:42:20.118Z,99.90
2018-11-03T11:44:48.204Z,99.90
2018-11-03T11:47:16.232Z,99.90
2018-11-03T11:49:44.232Z,99.90
2018-11-03T11:52:12.220Z,96.80
2018-11-03T11:54:40.273Z,98.10
2018-11-03T11:57:08.665Z,96.50
2018-11-03T11:59:36.677Z,96.60
2018-11-03T12:02:05.181Z,97.10
2018-11-03T12:04:33.097Z,96.00
2018-11-03T12:07:01.056Z,96.70
2018-11-03T12:09:29.048Z,96.20
2018-11-03T12:11:57.753Z,94.50
2018-11-03T12:14:25.740Z,87.70
2018-11-03T12:16:53.752Z,91.90
2018-11-03T12:19:21.739Z,91.00
2018-11-03T12:21:49.748Z,85.20
2018-11-03T12:24:17.728Z,81.90
2018-11-03T12:26:45.812Z,81.50
2018-11-03T12:29:13.832Z,80.00
2018-11-03T12:31:41.888Z,84.10
2018-11-03T12:34:10.732Z,83.50
2018-11-03T12:36:38.794Z,76.70
2018-11-03T12:39:07.397Z,76.50
2018-11-03T12:41:35.468Z,81.20
2018-11-03T12:44:03.484Z,73.80
2018-11-03T12:46:31.409Z,71.50
2018-11-03T12:48:59.406Z,77.60
2018-11-03T12:51:27.477Z,74.10
2018-11-03T12:53:55.450Z,72.50
2018-11-03T12:56:23.436Z,72.30
2018-11-03T13:00:20.724Z,72.10
2018-11-03T13:02:48.692Z,78.20
2018-11-03T13:05:16.786Z,75.10
2018-11-03T13:07:45.650Z,76.50
2018-11-03T13:10:13.644Z,75.20
2018-11-03T13:12:42.416Z,77.40
2018-11-03T13:15:11.679Z,79.70
2018-11-03T13:17:39.784Z,78.70
2018-11-03T13:20:09.729Z,76.70
2018-11-03T13:22:37.773Z,72.90
2018-11-03T13:25:06.453Z,67.70
2018-11-03T13:27:34.632Z,70.30
2018-11-03T13:30:02.761Z,63.20
2018-11-03T13:32:31.082Z,66.40
2018-11-03T13:34:59.184Z,69.40
2018-11-03T13:37:27.067Z,64.20
2018-11-03T13:39:55.101Z,61.50
2018-11-03T13:42:23.161Z,63.60
2018-11-03T13:44:51.250Z,62.50
2018-11-03T13:47:19.369Z,64.20
2018-11-03T13:49:47.305Z,65.40
2018-11-03T13:52:15.349Z,62.20
2018-11-03T13:54:43.309Z,65.00
2018-11-03T13:57:11.458Z,65.90
2018-11-03T13:59:39.400Z,67.30
2018-11-03T14:02:07.365Z,70.10
2018-11-03T14:04:35.386Z,67.40
2018-11-03T14:07:03.409Z,65.30
2018-11-03T14:09:31.377Z,66.60
2018-11-03T14:11:59.403Z,63.70
2018-11-03T14:14:27.399Z,60.30
2018-11-03T14:16:55.505Z,64.70
2018-11-03T14:19:23.442Z,62.20
2018-11-03T14:21:51.517Z,66.70
2018-11-03T14:24:19.489Z,70.30
2018-11-03T14:26:47.482Z,74.10
2018-11-03T14:29:15.449Z,77.80
2018-11-03T14:31:43.420Z,80.20
2018-11-03T14:34:11.432Z,82.40
2018-11-03T14:36:39.504Z,85.70
2018-11-03T14:39:08.232Z,90.20
2018-11-03T14:41:36.285Z,91.30
2018-11-03T14:44:04.603Z,93.10
2018-11-03T14:46:32.609Z,96.40
2018-11-03T14:49:00.621Z,99.30
2018-11-03T14:51:28.600Z,99.90
2018-11-03T14:53:56.645Z,99.90
2018-11-03T14:56:24.635Z,99.90
2018-11-03T14:58:52.687Z,99.90
2018-11-03T15:01:20.711Z,99.90
2018-11-03T15:03:48.708Z,99.90
2018-11-03T15:06:16.704Z,99.90
2018-11-03T15:08:44.684Z,99.90
2018-11-03T15:11:12.664Z,99.90
2018-11-03T15:13:40.744Z,99.90
2018-11-03T15:16:08.657Z,99.90
2018-11-03T15:18:36.658Z,99.90
2018-11-03T15:21:04.639Z,99.90
2018-11-03T15:23:32.644Z,99.90
2018-11-03T15:26:00.792Z,99.90
2018-11-03T15:28:28.765Z,99.90
2018-11-03T15:30:56.799Z,99.90
2018-11-03T15:33:25.014Z,99.90
2018-11-03T15:35:53.018Z,99.90
2018-11-03T15:38:21.019Z,99.90
2018-11-03T15:40:49.005Z,99.90
2018-11-03T15:43:17.016Z,99.90
2018-11-03T15:45:45.040Z,99.90
2018-11-03T15:48:13.064Z,99.90
2018-11-03T15:50:46.657Z,99.90
2018-11-03T15:53:14.665Z,99.90
2018-11-03T15:55:42.619Z,99.90
2018-11-03T15:58:10.713Z,99.90
2018-11-03T16:00:38.675Z,99.90
2018-11-03T16:03:06.709Z,99.90
2018-11-03T16:05:34.900Z,99.90
2018-11-03T16:08:03.000Z,99.90
2018-11-03T16:10:31.004Z,99.90
2018-11-03T16:12:59.090Z,99.90
2018-11-03T16:15:27.128Z,99.90
2018-11-03T16:17:55.182Z,99.90
2018-11-03T16:20:23.188Z,99.90
2018-11-03T16:22:51.303Z,99.90
2018-11-03T16:25:19.270Z,99.90
2018-11-03T16:27:47.296Z,99.90
2018-11-03T16:30:16.488Z,99.90
2018-11-03T16:32:44.810Z,99.90
2018-11-03T16:35:12.741Z,99.90
2018-11-03T16:37:41.198Z,99.90
2018-11-03T16:40:10.897Z,99.90
2018-11-03T16:42:39.071Z,99.90
2018-11-03T16:45:08.226Z,99.90
2018-11-03T16:47:36.240Z,99.90
2018-11-03T16:50:04.609Z,99.90
2018-11-03T16:52:32.777Z,99.90
2018-11-03T16:55:00.723Z,99.90
2018-11-03T16:57:28.747Z,99.90
2018-11-03T16:59:56.754Z,99.90
2018-11-03T17:02:24.873Z,99.90
2018-11-03T17:04:52.883Z,99.90
2018-11-03T17:07:20.860Z,99.90
2018-11-03T17:09:48.874Z,99.90
2018-11-03T17:12:16.898Z,99.90
2018-11-03T17:14:44.924Z,99.90
2018-11-03T17:17:12.901Z,99.90
2018-11-03T17:19:40.960Z,99.90
2018-11-03T17:22:09.038Z,99.90
2018-11-03T17:24:37.038Z,99.90
2018-11-03T17:27:05.171Z,99.90
2018-11-03T17:29:33.190Z,99.90
2018-11-03T17:32:01.169Z,99.90
2018-11-03T17:34:29.201Z,99.90
2018-11-03T17:36:57.188Z,99.90
2018-11-03T17:39:25.202Z,99.90
2018-11-03T17:41:53.252Z,99.90
2018-11-03T17:44:21.345Z,99.90
2018-11-03T17:46:49.345Z,99.90
2018-11-03T17:49:17.386Z,99.90
2018-11-03T17:51:45.720Z,99.90
2018-11-03T17:54:14.014Z,99.90
2018-11-03T17:56:42.054Z,99.90
2018-11-03T17:59:10.043Z,99.90
2018-11-03T18:01:38.186Z,99.90
2018-11-03T18:04:06.090Z,99.90
2018-11-03T18:06:34.076Z,99.90
2018-11-03T18:09:02.078Z,99.90
2018-11-03T18:11:30.104Z,99.90
2018-11-03T18:13:58.114Z,99.90
2018-11-03T18:16:26.175Z,99.90
2018-11-03T18:18:54.179Z,99.90
2018-11-03T18:21:22.205Z,99.90
2018-11-03T18:23:50.266Z,99.90
2018-11-03T18:26:18.411Z,99.90
2018-11-03T18:28:46.279Z,99.90
2018-11-03T18:31:14.295Z,99.90
2018-11-03T18:33:42.790Z,99.90
2018-11-03T18:36:10.796Z,99.90
2018-11-03T18:38:38.784Z,99.90
2018-11-03T18:41:06.944Z,99.90
2018-11-03T18:43:35.356Z,99.90
2018-11-03T18:46:03.381Z,99.90
2018-11-03T18:48:31.693Z,99.90
2018-11-03T18:50:59.725Z,99.90
2018-11-03T18:53:27.740Z,99.90
2018-11-03T18:55:55.799Z,99.90
2018-11-03T18:58:23.785Z,99.90
2018-11-03T19:00:51.814Z,99.90
2018-11-03T19:03:19.787Z,99.90
2018-11-03T19:05:47.856Z,99.90
2018-11-03T19:08:15.847Z,99.90
2018-11-03T19:10:43.873Z,99.90
2018-11-03T19:13:11.910Z,99.90
2018-11-03T19:15:39.877Z,99.90
2018-11-03T19:18:08.748Z,99.90
2018-11-03T19:20:36.757Z,99.90
2018-11-03T19:23:05.084Z,99.90
2018-11-03T19:25:33.104Z,99.90
2018-11-03T19:28:01.145Z,99.90
2018-11-03T19:30:29.179Z,99.90
2018-11-03T19:32:57.167Z,99.90
2018-11-03T19:35:25.188Z,99.90
2018-11-03T19:37:53.192Z,99.90
2018-11-03T19:40:21.468Z,99.90
2018-11-03T19:42:49.464Z,99.90
2018-11-03T19:45:17.486Z,99.90
2018-11-03T19:47:45.466Z,99.90
2018-11-03T19:50:13.432Z,99.90
2018-11-03T19:52:41.538Z,99.90
2018-11-03T19:55:09.516Z,99.90
2018-11-03T19:57:37.560Z,99.90
2018-11-03T20:00:08.432Z,99.90
2018-11-03T20:02:36.538Z,99.90
2018-11-03T20:05:05.137Z,99.90
2018-11-03T20:07:33.218Z,99.90
2018-11-03T20:10:01.317Z,99.90
2018-11-03T20:12:29.315Z,99.90
2018-11-03T20:14:57.284Z,99.90
2018-11-03T20:17:25.296Z,99.90
2018-11-03T20:19:53.284Z,99.90
2018-11-03T20:22:21.293Z,99.90
2018-11-03T20:24:49.307Z,99.90
2018-11-03T20:27:17.327Z,99.90
2018-11-03T20:29:45.353Z,99.90
2018-11-03T20:32:13.345Z,99.90
2018-11-03T20:34:41.352Z,99.90
2018-11-03T20:37:09.377Z,99.90
2018-11-03T20:39:37.387Z,99.90
2018-11-03T20:42:05.617Z,99.90
2018-11-03T20:44:33.600Z,99.90
2018-11-03T20:47:01.624Z,99.90
2018-11-03T20:49:29.673Z,99.90
2018-11-03T20:51:57.695Z,99.90
2018-11-03T20:54:25.727Z,99.90
2018-11-03T20:56:53.796Z,99.90
2018-11-03T20:59:21.750Z,99.90
2018-11-03T21:01:49.808Z,99.90
2018-11-03T21:04:17.748Z,99.90
2018-11-03T21:06:45.735Z,99.90
2018-11-03T21:09:13.860Z,99.90
2018-11-03T21:11:41.888Z,99.90
2018-11-03T21:14:09.869Z,99.90
2018-11-03T21:16:38.072Z,99.90
2018-11-03T21:19:06.330Z,99.90
2018-11-03T21:21:34.397Z,99.90
2018-11-03T21:24:02.459Z,99.90
2018-11-03T21:26:30.424Z,99.90
2018-11-03T21:28:58.429Z,99.90
2018-11-03T21:31:26.441Z,99.90
2018-11-03T21:33:54.424Z,99.90
2018-11-03T21:36:22.429Z,99.90
2018-11-03T21:38:50.500Z,99.90
2018-11-03T21:41:18.410Z,99.90
2018-11-03T21:43:46.401Z,99.90
2018-11-03T21:46:14.676Z,99.90
2018-11-03T21:48:42.608Z,99.90
2018-11-03T21:51:10.611Z,99.90
2018-11-03T21:53:38.595Z,99.90
2018-11-03T21:56:06.870Z,99.90
2018-11-03T21:58:34.829Z,99.90
2018-11-03T22:01:02.828Z,99.90
2018-11-03T22:03:30.832Z,99.90
2018-11-03T22:05:58.804Z,99.90
2018-11-03T22:08:27.194Z,99.90
2018-11-03T22:10:55.155Z,99.90
2018-11-03T22:13:23.179Z,99.90
2018-11-03T22:15:51.221Z,99.90
2018-11-03T22:18:19.181Z,99.90
2018-11-03T22:20:47.149Z,99.90
2018-11-03T22:23:15.141Z,99.90
2018-11-03T22:25:43.131Z,99.90
2018-11-03T22:28:11.152Z,99.90
2018-11-03T22:30:39.138Z,99.90
2018-11-03T22:33:07.101Z,99.90
2018-11-03T22:35:35.058Z,99.90
2018-11-03T22:38:03.065Z,99.90
2018-11-03T22:40:31.039Z,99.90
2018-11-03T22:42:59.085Z,99.90
2018-11-03T22:45:27.048Z,99.90
2018-11-03T22:47:55.053Z,99.90
2018-11-03T22:50:23.061Z,99.90
2018-11-03T22:52:51.053Z,99.90
2018-11-03T22:55:19.015Z,99.90
2018-11-03T22:57:47.016Z,99.90
2018-11-03T23:00:15.083Z,99.90
2018-11-03T23:02:43.768Z,99.90
2018-11-03T23:05:12.867Z,99.90
2018-11-03T23:07:41.215Z,99.90
2018-11-03T23:10:09.421Z,99.90
2018-11-03T23:12:37.420Z,99.90
2018-11-03T23:15:06.343Z,99.90
2018-11-03T23:17:34.302Z,99.90
2018-11-03T23:20:02.313Z,99.90
2018-11-03T23:22:30.274Z,99.90
2018-11-03T23:24:58.292Z,99.90
2018-11-03T23:27:26.274Z,99.90
2018-11-03T23:29:54.483Z,99.90
2018-11-03T23:32:22.264Z,99.90
2018-11-03T23:34:50.264Z,99.90
2018-11-03T23:37:18.259Z,99.90
2018-11-03T23:39:46.255Z,99.90
2018-11-03T23:42:14.267Z,99.90
2018-11-03T23:44:42.216Z,99.90
2018-11-03T23:47:10.204Z,99.90
2018-11-03T23:49:38.219Z,99.90
2018-11-03T23:52:06.177Z,99.90
2018-11-03T23:54:34.195Z,99.90
2018-11-03T23:57:02.137Z,99.90
2018-11-03T23:59:30.283Z,99.90
